Time;durP1;ratioP1;P1;durP2;ratioP2;P2;SDS_P1;SDS_P2;PMS_P1;PMS_P2;Temp;Humidity;BMP_temperature;BMP_pressure;BME280_temperature;BME280_humidity;BME280_pressure;Samples;Min_cycle;Max_cycle;Signal;HPM_P1;HPM_P2
2023/04/29 00:02:24;;;;;;;12.90;9.80;;;8.60;99.90;;;;;;4949674;28;20210;-54
2023/04/29 00:04:51;;;;;;;11.90;9.00;;;8.60;99.90;;;;;;4955043;28;20217;-51
2023/04/29 00:07:18;;;;;;;13.53;9.87;;;8.60;99.90;;;;;;4959822;28;20253;-51
2023/04/29 00:09:45;;;;;;;16.50;8.90;;;8.50;99.90;;;;;;4952165;28;20233;-52
2023/04/29 00:12:12;;;;;;;12.57;9.07;;;8.50;99.90;;;;;;4951289;28;20253;-61
2023/04/29 00:14:38;;;;;;;9.63;8.30;;;8.50;99.90;;;;;;4967300;28;20198;-58
2023/04/29 00:17:05;;;;;;;12.47;9.13;;;8.50;99.90;;;;;;4965473;28;20706;-65
2023/04/29 00:19:35;;;;;;;10.57;8.20;;;8.40;99.90;;;;;;4958245;28;20277;-57
2023/04/29 00:22:02;;;;;;;13.27;9.50;;;8.40;99.90;;;;;;4960100;28;20206;-61
2023/04/29 00:24:29;;;;;;;13.17;9.13;;;8.40;99.90;;;;;;4958926;28;20198;-56
2023/04/29 00:26:57;;;;;;;11.13;9.43;;;8.40;99.90;;;;;;4944259;28;24308;-58
2023/04/29 00:29:23;;;;;;;12.63;9.27;;;8.40;99.90;;;;;;4975051;28;20217;-56
2023/04/29 00:31:50;;;;;;;10.00;8.43;;;8.40;99.90;;;;;;4964912;28;20214;-60
2023/04/29 00:34:18;;;;;;;16.77;9.87;;;8.40;99.90;;;;;;4957994;28;20568;-60
2023/04/29 00:36:46;;;;;;;11.57;9.60;;;8.30;99.90;;;;;;4963303;28;20218;-60
2023/04/29 00:39:13;;;;;;;12.60;9.57;;;8.30;99.90;;;;;;4941289;28;20823;-56
2023/04/29 00:41:41;;;;;;;12.17;8.67;;;8.30;99.90;;;;;;4912854;28;20431;-54
2023/04/29 00:44:11;;;;;;;10.70;9.60;;;8.30;99.90;;;;;;4964592;28;20213;-60
2023/04/29 00:46:38;;;;;;;10.93;9.40;;;8.30;99.90;;;;;;4960200;28;20257;-56
2023/04/29 00:49:05;;;;;;;12.93;8.83;;;8.30;99.90;;;;;;4966986;28;20194;-60
2023/04/29 00:51:33;;;;;;;13.93;9.30;;;8.30;99.90;;;;;;4940707;28;20216;-55
2023/04/29 00:54:01;;;;;;;12.83;8.93;;;8.30;99.90;;;;;;4969245;28;20337;-57
2023/04/29 00:56:31;;;;;;;16.40;8.83;;;8.20;99.90;;;;;;4923004;28;20219;-57
2023/04/29 00:59:01;;;;;;;14.13;9.67;;;8.20;99.90;;;;;;4965215;28;20202;-60
2023/04/29 01:01:28;;;;;;;11.83;9.03;;;8.20;99.90;;;;;;4947232;28;20186;-56
2023/04/29 01:03:56;;;;;;;14.20;10.10;;;8.20;99.90;;;;;;4979859;28;20194;-60
2023/04/29 01:06:32;;;;;;;13.13;9.07;;;8.20;99.90;;;;;;4940520;28;20230;-53
2023/04/29 01:09:16;;;;;;;13.10;9.07;;;8.20;99.90;;;;;;4933351;28;21369;-59
2023/04/29 01:11:55;;;;;;;12.73;10.07;;;8.20;99.90;;;;;;4934630;28;20202;-56
2023/04/29 01:14:26;;;;;;;11.53;9.57;;;8.20;99.90;;;;;;4958571;28;20206;-54
2023/04/29 01:17:03;;;;;;;13.23;10.00;;;8.20;99.90;;;;;;4949176;28;20225;-59
2023/04/29 01:19:52;;;;;;;14.50;10.57;;;8.20;99.90;;;;;;4963474;28;20233;-58
2023/04/29 01:22:21;;;;;;;15.00;10.83;;;8.20;99.90;;;;;;4934373;28;20206;-52
2023/04/29 01:24:50;;;;;;;17.10;11.77;;;8.20;99.90;;;;;;4948818;28;20281;-58
2023/04/29 01:27:26;;;;;;;16.63;11.20;;;8.20;99.90;;;;;;4948837;28;20750;-59
2023/04/29 01:30:07;;;;;;;17.13;11.17;;;8.20;99.90;;;;;;4936728;28;20205;-61
2023/04/29 01:32:46;;;;;;;14.77;11.60;;;8.20;99.90;;;;;;4951117;28;20280;-56
2023/04/29 01:35:27;;;;;;;18.50;11.63;;;8.20;99.90;;;;;;4947735;28;20198;-59
2023/04/29 01:38:00;;;;;;;17.63;12.27;;;8.20;99.90;;;;;;4933405;28;20206;-58
2023/04/29 01:40:37;;;;;;;15.23;12.23;;;8.20;99.90;;;;;;4950457;28;20700;-52
2023/04/29 01:43:15;;;;;;;18.13;12.83;;;8.10;99.90;;;;;;4951461;28;20204;-59
2023/04/29 01:45:45;;;;;;;18.10;12.37;;;8.10;99.90;;;;;;4956188;28;20213;-59
2023/04/29 01:48:13;;;;;;;16.27;12.63;;;8.10;99.90;;;;;;4950391;28;20190;-59
2023/04/29 01:50:41;;;;;;;16.17;13.17;;;8.10;99.90;;;;;;4937556;28;20190;-56
2023/04/29 01:53:11;;;;;;;19.23;14.00;;;8.10;99.90;;;;;;4944091;28;20218;-58
2023/04/29 01:55:42;;;;;;;22.83;13.93;;;8.20;99.90;;;;;;4959109;28;20214;-57
2023/04/29 01:58:19;;;;;;;20.23;14.70;;;8.10;99.90;;;;;;4947196;28;20202;-60
2023/04/29 02:00:58;;;;;;;17.87;13.77;;;8.10;99.90;;;;;;4928448;28;20308;-60
2023/04/29 02:03:27;;;;;;;19.17;13.67;;;8.10;99.90;;;;;;4979112;28;20190;-55
2023/04/29 02:05:57;;;;;;;19.40;14.00;;;8.00;99.90;;;;;;4971316;28;20209;-58
2023/04/29 02:08:25;;;;;;;17.50;12.37;;;8.00;99.90;;;;;;4977847;28;20281;-54
2023/04/29 02:10:55;;;;;;;18.10;13.70;;;8.00;99.90;;;;;;4943819;28;20222;-59
2023/04/29 02:13:31;;;;;;;17.57;11.73;;;8.00;99.90;;;;;;4958875;28;20222;-55
2023/04/29 02:16:06;;;;;;;17.47;12.30;;;8.00;99.90;;;;;;4938745;28;20217;-59
2023/04/29 02:18:34;;;;;;;14.90;12.00;;;8.00;99.90;;;;;;4942358;28;20845;-57
2023/04/29 02:21:03;;;;;;;16.23;12.50;;;8.00;99.90;;;;;;4944819;28;20202;-59
2023/04/29 02:23:33;;;;;;;16.40;13.17;;;8.00;99.90;;;;;;4945954;28;20213;-55
2023/04/29 02:26:02;;;;;;;17.40;11.57;;;8.00;99.90;;;;;;4950859;28;20729;-55
2023/04/29 02:28:29;;;;;;;19.57;13.20;;;8.00;99.90;;;;;;4944401;28;20293;-59
2023/04/29 02:30:57;;;;;;;18.20;11.77;;;8.00;99.90;;;;;;4941924;28;20230;-55
2023/04/29 02:33:24;;;;;;;17.13;12.13;;;8.00;99.90;;;;;;4960177;28;20744;-56
2023/04/29 02:35:51;;;;;;;15.67;11.83;;;8.00;99.90;;;;;;4947120;28;20218;-59
2023/04/29 02:38:19;;;;;;;18.33;12.27;;;8.00;99.90;;;;;;4960856;28;20198;-59
2023/04/29 02:40:47;;;;;;;16.37;12.03;;;8.10;99.90;;;;;;4956567;28;20249;-59
2023/04/29 02:43:16;;;;;;;16.97;12.50;;;8.00;99.90;;;;;;4935823;28;20198;-59
2023/04/29 02:45:45;;;;;;;16.53;12.30;;;8.00;99.90;;;;;;4922668;28;20230;-59
2023/04/29 02:48:12;;;;;;;15.97;12.13;;;8.00;99.90;;;;;;4946530;28;20193;-57
2023/04/29 02:50:39;;;;;;;19.10;12.77;;;8.00;99.90;;;;;;4979496;28;20213;-60
2023/04/29 02:53:07;;;;;;;16.47;12.83;;;8.00;99.90;;;;;;4944848;28;20707;-53
2023/04/29 02:55:33;;;;;;;18.00;12.77;;;8.00;99.90;;;;;;4959578;28;20213;-58
2023/04/29 02:58:06;;;;;;;18.77;13.53;;;8.00;99.90;;;;;;4935344;28;20963;-55
2023/04/29 03:00:34;;;;;;;16.03;12.37;;;8.00;99.90;;;;;;4935442;28;20190;-55
2023/04/29 03:03:01;;;;;;;20.27;12.40;;;8.00;99.90;;;;;;4950757;28;20206;-57
2023/04/29 03:05:28;;;;;;;14.97;12.50;;;8.00;99.90;;;;;;4966724;28;20201;-61
2023/04/29 03:07:55;;;;;;;17.90;12.30;;;8.00;99.90;;;;;;4946811;28;20206;-57
2023/04/29 03:10:22;;;;;;;18.00;12.27;;;8.00;99.90;;;;;;4935389;28;20198;-60
2023/04/29 03:12:49;;;;;;;17.57;12.30;;;8.00;99.90;;;;;;4933902;28;20226;-58
2023/04/29 03:15:16;;;;;;;20.03;12.70;;;8.00;99.90;;;;;;4953884;28;20193;-60
2023/04/29 03:17:45;;;;;;;20.33;13.53;;;8.00;99.90;;;;;;4928824;28;20706;-60
2023/04/29 03:20:13;;;;;;;20.77;12.13;;;8.00;99.90;;;;;;4955158;28;20190;-59
2023/04/29 03:22:40;;;;;;;17.07;12.90;;;8.00;99.90;;;;;;4964597;28;20194;-60
2023/04/29 03:25:09;;;;;;;18.40;12.53;;;8.00;99.90;;;;;;4938164;28;20293;-54
2023/04/29 03:27:37;;;;;;;17.20;11.93;;;8.00;99.90;;;;;;4942601;28;20236;-56
2023/04/29 03:30:05;;;;;;;18.63;13.10;;;8.00;99.90;;;;;;4951707;28;20276;-56
2023/04/29 03:32:33;;;;;;;15.80;12.50;;;8.00;99.90;;;;;;4929020;28;20209;-54
2023/04/29 03:35:02;;;;;;;18.57;12.43;;;8.00;99.90;;;;;;4964647;28;20198;-55
2023/04/29 03:37:36;;;;;;;18.57;12.57;;;8.00;99.90;;;;;;4970617;28;20247;-53
2023/04/29 03:40:18;;;;;;;16.60;12.17;;;8.00;99.90;;;;;;4967919;28;20224;-60
2023/04/29 03:42:45;;;;;;;15.80;12.40;;;8.00;99.90;;;;;;4956951;28;20214;-57
2023/04/29 03:45:13;;;;;;;17.70;12.67;;;8.00;99.90;;;;;;4941126;28;20296;-57
2023/04/29 03:47:39;;;;;;;14.57;11.60;;;7.90;99.90;;;;;;4953544;28;20210;-60
2023/04/29 03:50:09;;;;;;;15.20;12.40;;;7.90;99.90;;;;;;4960070;28;20252;-58
2023/04/29 03:52:36;;;;;;;19.20;12.73;;;7.90;99.90;;;;;;4958651;28;20205;-60
2023/04/29 03:55:10;;;;;;;16.77;12.27;;;7.90;99.90;;;;;;4935739;28;20190;-58
2023/04/29 03:57:37;;;;;;;18.57;11.87;;;7.90;99.90;;;;;;4975842;28;20244;-60
2023/04/29 04:00:05;;;;;;;14.97;12.57;;;7.90;99.90;;;;;;4940017;29;20620;-60
2023/04/29 04:02:40;;;;;;;18.37;12.83;;;7.90;99.90;;;;;;4967738;28;20319;-56
2023/04/29 04:05:10;;;;;;;20.57;12.17;;;7.80;99.90;;;;;;4935247;28;20296;-59
2023/04/29 04:07:41;;;;;;;19.63;13.67;;;7.80;99.90;;;;;;4960832;28;20225;-60
2023/04/29 04:10:28;;;;;;;18.60;13.60;;;7.80;99.90;;;;;;4960761;28;20198;-59
2023/04/29 04:13:17;;;;;;;16.60;12.80;;;7.80;99.90;;;;;;4966876;28;20464;-58
2023/04/29 04:15:49;;;;;;;19.27;13.53;;;7.80;99.90;;;;;;4944125;28;20210;-58
2023/04/29 04:18:17;;;;;;;21.63;12.93;;;7.80;99.90;;;;;;4969289;28;20367;-56
2023/04/29 04:20:46;;;;;;;18.77;14.43;;;7.80;99.90;;;;;;4933938;28;20217;-57
2023/04/29 04:23:13;;;;;;;19.67;13.03;;;7.80;99.90;;;;;;4948405;28;20195;-60
2023/04/29 04:25:45;;;;;;;17.03;13.20;;;7.80;99.90;;;;;;4979456;28;20202;-60
2023/04/29 04:28:51;;;;;;;16.97;12.63;;;7.80;99.90;;;;;;4964057;28;20201;-50
2023/04/29 04:31:27;;;;;;;18.07;12.77;;;7.80;99.90;;;;;;4959033;28;20297;-43
2023/04/29 04:33:54;;;;;;;20.73;13.17;;;7.80;99.90;;;;;;4947355;28;20222;-52
2023/04/29 04:36:23;;;;;;;15.93;13.17;;;7.90;99.90;;;;;;4918976;28;20225;-50
2023/04/29 04:38:50;;;;;;;17.17;13.40;;;7.90;99.90;;;;;;4990358;28;20248;-47
2023/04/29 04:41:17;;;;;;;18.63;13.37;;;7.90;99.90;;;;;;4949504;28;20194;-46
2023/04/29 04:43:46;;;;;;;19.50;13.80;;;7.80;99.90;;;;;;4966048;28;20208;-49
2023/04/29 04:46:20;;;;;;;15.17;12.37;;;7.90;99.90;;;;;;4974420;28;20237;-50
2023/04/29 04:48:55;;;;;;;18.03;12.20;;;7.80;99.90;;;;;;4945231;28;20227;-55
2023/04/29 04:51:23;;;;;;;15.53;12.20;;;7.80;99.90;;;;;;4949024;28;20316;-48
2023/04/29 04:53:50;;;;;;;17.37;11.70;;;7.80;99.90;;;;;;4934279;28;20218;-47
2023/04/29 04:56:20;;;;;;;17.60;12.73;;;7.70;99.90;;;;;;4952639;28;20297;-49
2023/04/29 04:58:46;;;;;;;16.63;11.40;;;7.70;99.90;;;;;;4934928;28;20214;-46
2023/04/29 05:01:14;;;;;;;12.87;11.43;;;7.70;99.90;;;;;;4930757;28;20288;-49
2023/04/29 05:03:41;;;;;;;16.27;11.50;;;7.70;99.90;;;;;;4942761;28;20618;-50
2023/04/29 05:06:09;;;;;;;15.17;11.50;;;7.70;99.90;;;;;;4938791;28;20217;-50
2023/04/29 05:08:39;;;;;;;12.97;10.57;;;7.70;99.90;;;;;;4922136;28;20213;-43
2023/04/29 05:11:28;;;;;;;15.87;10.80;;;7.70;99.90;;;;;;4978110;28;20276;-42
2023/04/29 05:14:08;;;;;;;14.00;10.37;;;7.70;99.90;;;;;;4935818;28;20222;-55
2023/04/29 05:16:35;;;;;;;13.70;10.00;;;7.70;99.90;;;;;;4953619;28;20946;-49
2023/04/29 05:19:02;;;;;;;16.63;11.37;;;7.70;99.90;;;;;;4954673;28;20202;-55
2023/04/29 05:21:33;;;;;;;21.40;10.90;;;7.70;99.90;;;;;;4962609;28;20194;-48
2023/04/29 05:24:02;;;;;;;12.97;9.90;;;7.80;99.90;;;;;;4930759;28;20206;-58
2023/04/29 05:26:29;;;;;;;13.13;8.70;;;7.70;99.90;;;;;;4951906;28;20442;-43
2023/04/29 05:29:00;;;;;;;15.43;10.00;;;7.70;99.90;;;;;;4939147;28;20214;-53
2023/04/29 05:31:29;;;;;;;16.17;10.17;;;7.80;99.90;;;;;;4932025;28;20198;-54
2023/04/29 05:34:03;;;;;;;15.97;9.73;;;7.80;99.90;;;;;;4939788;28;20216;-55
2023/04/29 05:36:30;;;;;;;13.70;10.70;;;7.80;99.90;;;;;;4945614;28;20206;-44
2023/04/29 05:38:57;;;;;;;14.67;9.70;;;7.80;99.90;;;;;;4972309;28;20252;-57
2023/04/29 05:41:26;;;;;;;14.73;9.57;;;7.90;99.90;;;;;;4945843;28;20205;-51
2023/04/29 05:43:53;;;;;;;15.13;9.97;;;8.00;99.90;;;;;;4965713;28;20221;-47
2023/04/29 05:46:21;;;;;;;13.60;8.80;;;8.00;99.90;;;;;;4915601;28;20242;-46
2023/04/29 05:48:49;;;;;;;16.20;9.13;;;8.00;99.90;;;;;;4931950;28;20682;-48
2023/04/29 05:51:16;;;;;;;18.43;9.33;;;8.10;99.90;;;;;;4979963;28;20214;-49
2023/04/29 05:53:43;;;;;;;11.90;9.40;;;8.10;99.90;;;;;;4943279;28;20261;-48
2023/04/29 05:56:10;;;;;;;14.23;8.80;;;8.20;99.90;;;;;;4935975;28;20237;-50
2023/04/29 05:58:38;;;;;;;13.23;8.93;;;8.20;99.90;;;;;;4930895;28;20680;-48
2023/04/29 06:01:06;;;;;;;15.03;7.77;;;8.30;99.90;;;;;;4919249;28;20235;-50
2023/04/29 06:03:33;;;;;;;11.87;8.37;;;8.30;99.90;;;;;;4944932;28;20304;-48
2023/04/29 06:06:21;;;;;;;11.73;8.80;;;8.40;99.90;;;;;;4938053;28;20309;-53
2023/04/29 06:09:01;;;;;;;8.77;7.90;;;8.40;99.90;;;;;;4936119;28;20220;-53
2023/04/29 06:11:30;;;;;;;19.00;8.90;;;8.50;99.90;;;;;;4914271;28;20203;-45
2023/04/29 06:13:58;;;;;;;13.40;8.40;;;8.60;99.90;;;;;;4924338;28;20225;-46
2023/04/29 06:16:26;;;;;;;11.17;8.13;;;8.70;99.90;;;;;;4944484;28;20241;-55
2023/04/29 06:18:53;;;;;;;10.47;7.87;;;8.70;99.90;;;;;;4929075;28;20218;-45
2023/04/29 06:21:20;;;;;;;14.63;8.70;;;8.80;99.90;;;;;;4948380;28;20190;-53
2023/04/29 06:23:47;;;;;;;13.03;9.03;;;8.90;99.90;;;;;;4944387;28;20208;-47
2023/04/29 06:26:17;;;;;;;13.37;8.30;;;8.90;99.90;;;;;;4934418;28;20318;-46
2023/04/29 06:28:45;;;;;;;11.77;8.57;;;9.00;99.90;;;;;;4919616;28;20222;-47
2023/04/29 06:31:14;;;;;;;11.90;8.33;;;9.10;99.90;;;;;;4953264;28;20217;-51
2023/04/29 06:33:42;;;;;;;16.13;8.27;;;9.10;99.90;;;;;;4937623;28;20237;-46
2023/04/29 06:36:09;;;;;;;17.27;9.30;;;9.20;99.90;;;;;;4976188;28;20352;-49
2023/04/29 06:38:55;;;;;;;11.27;8.10;;;9.20;99.90;;;;;;4961046;28;20922;-43
2023/04/29 06:41:26;;;;;;;11.37;7.23;;;9.40;99.90;;;;;;4950582;28;20202;-40
2023/04/29 06:43:59;;;;;;;12.03;8.13;;;9.40;99.90;;;;;;4940652;28;20202;-45
2023/04/29 06:46:38;;;;;;;9.63;6.97;;;9.50;99.90;;;;;;4971753;28;20304;-40
2023/04/29 06:49:26;;;;;;;14.40;8.00;;;9.50;99.90;;;;;;4967031;28;20202;-43
2023/04/29 06:51:53;;;;;;;11.77;7.50;;;9.50;99.90;;;;;;4943799;28;20293;-40
2023/04/29 06:54:20;;;;;;;9.83;7.27;;;9.60;99.90;;;;;;4941359;28;20214;-41
2023/04/29 06:56:50;;;;;;;10.67;6.77;;;9.60;99.90;;;;;;4960792;28;20775;-43
2023/04/29 06:59:18;;;;;;;11.07;6.33;;;9.60;99.90;;;;;;4927803;28;20348;-44
2023/04/29 07:01:46;;;;;;;8.90;6.43;;;9.60;99.90;;;;;;4960317;28;20210;-39
2023/04/29 07:04:13;;;;;;;7.00;6.13;;;9.60;99.90;;;;;;4959138;28;20204;-40
2023/04/29 07:06:40;;;;;;;8.40;6.17;;;9.60;99.90;;;;;;4953739;28;20245;-41
2023/04/29 07:09:08;;;;;;;11.07;5.70;;;9.60;99.90;;;;;;4928661;28;20226;-41
2023/04/29 07:11:36;;;;;;;11.13;6.27;;;9.60;99.90;;;;;;4944101;28;20618;-41
2023/04/29 07:14:03;;;;;;;6.93;6.00;;;9.70;99.90;;;;;;4920905;28;20827;-42
2023/04/29 07:16:30;;;;;;;7.70;5.17;;;9.70;99.90;;;;;;4956424;28;20234;-42
2023/04/29 07:18:58;;;;;;;7.37;5.67;;;9.80;99.90;;;;;;4959937;28;20232;-44
2023/04/29 07:21:25;;;;;;;10.53;5.97;;;9.90;99.90;;;;;;4932009;29;20203;-43
2023/04/29 07:23:54;;;;;;;10.63;5.93;;;10.00;99.90;;;;;;4920759;28;20214;-42
2023/04/29 07:26:21;;;;;;;5.47;4.97;;;10.10;99.90;;;;;;4964125;28;20317;-44
2023/04/29 07:28:49;;;;;;;7.20;5.10;;;10.20;99.90;;;;;;4927706;28;20305;-43
2023/04/29 07:31:16;;;;;;;8.63;5.50;;;10.30;99.90;;;;;;4959570;28;20209;-46
2023/04/29 07:33:45;;;;;;;9.87;5.43;;;10.40;99.90;;;;;;4957025;28;20583;-39
2023/04/29 07:36:13;;;;;;;11.03;5.77;;;10.40;99.90;;;;;;4945938;28;22094;-40
2023/04/29 07:38:40;;;;;;;7.57;5.87;;;10.40;99.90;;;;;;4941208;28;20197;-40
2023/04/29 07:41:07;;;;;;;8.33;5.77;;;10.50;99.90;;;;;;4935925;28;20217;-42
2023/04/29 07:43:35;;;;;;;6.60;5.90;;;10.50;99.90;;;;;;4941264;28;20213;-44
2023/04/29 07:46:04;;;;;;;7.50;5.57;;;10.60;99.90;;;;;;4935471;28;21010;-46
2023/04/29 07:48:31;;;;;;;8.13;6.10;;;10.60;99.90;;;;;;4938956;28;20298;-41
2023/04/29 07:50:59;;;;;;;7.30;5.60;;;10.60;99.90;;;;;;4937583;28;20937;-42
2023/04/29 07:53:26;;;;;;;9.47;5.70;;;10.70;99.90;;;;;;4952959;28;20276;-43
2023/04/29 07:55:53;;;;;;;6.90;5.30;;;10.70;99.90;;;;;;4936788;28;20233;-43
2023/04/29 07:58:22;;;;;;;7.10;5.47;;;10.70;99.90;;;;;;4944490;28;20199;-43
2023/04/29 08:00:49;;;;;;;8.13;5.33;;;10.90;99.90;;;;;;4922472;28;20895;-46
2023/04/29 08:03:16;;;;;;;7.67;5.10;;;11.00;99.90;;;;;;4948810;28;20197;-54
2023/04/29 08:05:44;;;;;;;12.60;5.30;;;11.00;99.90;;;;;;4939512;28;20194;-47
2023/04/29 08:08:14;;;;;;;8.57;5.10;;;11.10;99.90;;;;;;4938724;28;20218;-48
2023/04/29 08:10:42;;;;;;;8.53;5.60;;;11.30;99.90;;;;;;4937341;28;20582;-54
2023/04/29 08:13:09;;;;;;;6.43;5.23;;;11.30;99.90;;;;;;4955526;28;20214;-49
2023/04/29 08:15:36;;;;;;;7.97;5.40;;;11.30;99.90;;;;;;4921617;28;20222;-56
2023/04/29 08:18:03;;;;;;;7.60;5.37;;;11.40;99.90;;;;;;4945598;28;20697;-51
2023/04/29 08:20:30;;;;;;;6.37;5.03;;;11.40;99.90;;;;;;4959150;28;20201;-54
2023/04/29 08:22:58;;;;;;;5.80;5.03;;;11.40;99.90;;;;;;4966201;28;20186;-45
2023/04/29 08:25:25;;;;;;;6.53;5.37;;;11.40;99.90;;;;;;4958432;28;20206;-56
2023/04/29 08:27:53;;;;;;;7.30;5.67;;;11.50;99.90;;;;;;4959003;28;20301;-51
2023/04/29 08:30:20;;;;;;;11.77;5.70;;;11.50;99.90;;;;;;4956080;28;20210;-52
2023/04/29 08:32:47;;;;;;;6.27;5.67;;;11.60;99.90;;;;;;4941908;28;20218;-52
2023/04/29 08:35:14;;;;;;;7.17;6.07;;;11.70;99.90;;;;;;4960864;28;20222;-57
2023/04/29 08:37:41;;;;;;;7.67;6.10;;;11.80;99.90;;;;;;4965867;28;20938;-53
2023/04/29 08:40:09;;;;;;;10.80;6.13;;;11.80;99.90;;;;;;4952728;28;20285;-54
2023/04/29 08:42:37;;;;;;;9.20;6.77;;;11.90;99.90;;;;;;4957965;28;20248;-47
2023/04/29 08:45:06;;;;;;;7.37;6.30;;;11.90;99.90;;;;;;4959960;28;20196;-51
2023/04/29 08:47:33;;;;;;;9.03;6.17;;;11.90;99.90;;;;;;4946080;28;20217;-49
2023/04/29 08:50:03;;;;;;;7.03;6.33;;;11.90;99.90;;;;;;4971848;28;20232;-52
2023/04/29 08:52:33;;;;;;;7.50;6.00;;;12.10;99.90;;;;;;4962915;28;20273;-48
2023/04/29 08:55:02;;;;;;;8.50;6.60;;;12.10;99.90;;;;;;4950921;28;20240;-50
2023/04/29 08:57:30;;;;;;;7.20;6.30;;;12.10;99.90;;;;;;4960593;28;20221;-52
2023/04/29 09:00:00;;;;;;;10.07;6.27;;;12.20;99.90;;;;;;4953042;28;20226;-53
2023/04/29 09:02:29;;;;;;;8.07;6.23;;;12.20;99.90;;;;;;4943076;28;20214;-55
2023/04/29 09:05:05;;;;;;;8.20;6.23;;;12.20;99.90;;;;;;4961225;28;20213;-48
2023/04/29 09:07:33;;;;;;;8.10;6.43;;;12.20;99.90;;;;;;4961315;28;20448;-47
2023/04/29 09:10:00;;;;;;;9.60;6.80;;;12.20;99.90;;;;;;4958427;28;20277;-51
2023/04/29 09:12:29;;;;;;;8.97;6.53;;;12.30;99.90;;;;;;4948735;28;20209;-52
2023/04/29 09:14:56;;;;;;;6.63;6.03;;;12.30;99.90;;;;;;4954725;28;20300;-46
2023/04/29 09:20:30;;;;;;;8.70;5.97;;;12.20;99.90;;;;;;5109003;27;21011;-47
2023/04/29 09:23:00;;;;;;;7.57;5.83;;;12.50;99.90;;;;;;5094481;28;20209;-52
2023/04/29 09:25:28;;;;;;;6.53;5.93;;;12.60;99.90;;;;;;5087887;28;20283;-50
2023/04/29 09:27:55;;;;;;;10.87;5.80;;;12.70;99.90;;;;;;5080595;28;20430;-53
2023/04/29 09:30:23;;;;;;;6.03;5.53;;;12.60;99.90;;;;;;5093422;28;20208;-48
2023/04/29 09:33:07;;;;;;;8.93;5.33;;;12.60;99.90;;;;;;5067799;28;20216;-50
2023/04/29 09:35:36;;;;;;;6.33;5.30;;;12.70;99.90;;;;;;5088746;28;20220;-57
2023/04/29 09:38:11;;;;;;;9.53;5.57;;;12.70;99.90;;;;;;5093461;28;20205;-49
2023/04/29 09:40:39;;;;;;;7.50;6.17;;;12.80;99.90;;;;;;5082540;28;20915;-53
2023/04/29 09:43:13;;;;;;;7.63;5.40;;;12.90;99.90;;;;;;5092490;28;20221;-55
2023/04/29 09:45:43;;;;;;;7.03;5.60;;;12.90;99.90;;;;;;5088013;28;20229;-53
2023/04/29 09:48:11;;;;;;;5.53;5.00;;;12.90;99.90;;;;;;5093336;28;20198;-49
2023/04/29 09:50:40;;;;;;;6.80;5.20;;;13.00;99.90;;;;;;5067515;28;20777;-52
2023/04/29 09:53:09;;;;;;;4.43;4.07;;;13.10;99.90;;;;;;5086723;28;20277;-54
2023/04/29 09:55:36;;;;;;;4.27;3.87;;;13.20;99.90;;;;;;5084433;28;20186;-56
2023/04/29 09:58:03;;;;;;;6.10;4.40;;;13.20;99.90;;;;;;5080648;27;20206;-51
2023/04/29 10:00:32;;;;;;;5.97;4.53;;;13.20;99.90;;;;;;5085896;28;20213;-57
2023/04/29 10:03:01;;;;;;;6.30;4.30;;;13.30;99.90;;;;;;5087665;28;20278;-51
2023/04/29 10:05:30;;;;;;;5.97;4.60;;;13.40;99.90;;;;;;5067082;28;20202;-52
2023/04/29 10:08:00;;;;;;;6.80;5.23;;;13.40;99.90;;;;;;5083005;28;20575;-50
2023/04/29 10:10:31;;;;;;;4.63;4.23;;;13.50;99.90;;;;;;5079294;28;20194;-48
2023/04/29 10:13:00;;;;;;;8.23;5.10;;;13.30;99.90;;;;;;5090997;28;20189;-53
2023/04/29 10:15:32;;;;;;;7.73;4.87;;;13.40;99.90;;;;;;5086612;28;20967;-54
2023/04/29 10:18:09;;;;;;;7.00;5.40;;;13.50;99.90;;;;;;5094867;28;20201;-56
2023/04/29 10:20:39;;;;;;;6.53;5.43;;;13.50;99.90;;;;;;5064965;28;20205;-49
2023/04/29 10:23:08;;;;;;;7.50;5.70;;;13.40;99.90;;;;;;5087499;28;20221;-52
2023/04/29 10:25:37;;;;;;;7.87;5.47;;;13.50;99.90;;;;;;5086618;28;20200;-54
2023/04/29 10:28:05;;;;;;;8.30;5.17;;;13.60;99.90;;;;;;5090861;28;20221;-53
2023/04/29 10:30:33;;;;;;;6.07;5.47;;;13.50;99.90;;;;;;5080891;28;20212;-51
2023/04/29 10:33:02;;;;;;;7.97;5.77;;;13.50;99.90;;;;;;5070688;28;20848;-53
2023/04/29 10:35:29;;;;;;;8.10;5.67;;;13.50;99.90;;;;;;5052955;28;21042;-51
2023/04/29 10:38:00;;;;;;;5.97;5.47;;;13.50;99.90;;;;;;5065075;28;20213;-51
2023/04/29 10:40:36;;;;;;;6.07;5.47;;;13.60;99.90;;;;;;5081683;28;20218;-51
2023/04/29 10:43:03;;;;;;;10.60;5.70;;;13.80;99.90;;;;;;5076198;28;20201;-54
2023/04/29 10:45:34;;;;;;;6.33;5.73;;;13.70;99.90;;;;;;5076124;28;20277;-52
2023/04/29 10:48:15;;;;;;;6.77;5.07;;;13.80;99.90;;;;;;5079535;28;20196;-53
2023/04/29 10:51:02;;;;;;;6.53;5.03;;;13.80;99.90;;;;;;5050194;28;20283;-48
2023/04/29 10:53:29;;;;;;;5.63;5.13;;;13.90;99.90;;;;;;5077050;28;20239;-52
2023/04/29 10:56:03;;;;;;;6.27;5.27;;;14.00;99.90;;;;;;5081121;28;20210;-56
2023/04/29 10:58:43;;;;;;;7.97;6.20;;;14.00;99.90;;;;;;5076427;28;20209;-53
2023/04/29 11:01:12;;;;;;;6.37;5.63;;;14.10;99.90;;;;;;5074305;28;21471;-52
2023/04/29 11:03:57;;;;;;;9.80;6.03;;;14.20;99.90;;;;;;5076637;28;20198;-50
2023/04/29 11:06:26;;;;;;;6.13;5.53;;;14.10;99.90;;;;;;5057663;28;20220;-51
2023/04/29 11:09:03;;;;;;;6.93;5.70;;;14.00;99.90;;;;;;5064329;28;20206;-53
2023/04/29 11:11:50;;;;;;;6.53;5.90;;;14.10;99.90;;;;;;5084903;28;20531;-55
2023/04/29 11:14:23;;;;;;;6.60;6.00;;;14.30;99.90;;;;;;5071693;28;20210;-48
2023/04/29 11:17:14;;;;;;;6.57;5.27;;;14.20;99.90;;;;;;5065144;28;20246;-52
2023/04/29 11:19:43;;;;;;;8.20;5.70;;;14.10;99.90;;;;;;5066065;28;20224;-51
2023/04/29 11:22:24;;;;;;;8.10;5.63;;;14.20;99.90;;;;;;5064487;28;20205;-51
2023/04/29 11:24:54;;;;;;;10.20;5.57;;;14.30;99.90;;;;;;5073093;28;20194;-51
2023/04/29 11:27:25;;;;;;;9.17;5.50;;;14.50;99.90;;;;;;5079006;28;20296;-49
2023/04/29 11:29:57;;;;;;;9.20;5.53;;;14.50;99.90;;;;;;5068161;28;20201;-49
2023/04/29 11:32:24;;;;;;;6.03;5.43;;;14.50;99.90;;;;;;5069081;28;20826;-52
2023/04/29 11:34:53;;;;;;;7.53;5.10;;;14.40;99.90;;;;;;5076916;28;20243;-50
2023/04/29 11:37:21;;;;;;;6.40;5.00;;;14.50;99.90;;;;;;5079726;28;20221;-55
2023/04/29 11:39:49;;;;;;;9.07;5.27;;;14.40;99.90;;;;;;5052629;28;20218;-47
2023/04/29 11:42:20;;;;;;;5.87;4.87;;;14.40;99.90;;;;;;5071734;28;20231;-51
2023/04/29 11:44:51;;;;;;;6.00;5.40;;;14.40;99.90;;;;;;5067371;28;20440;-52
2023/04/29 11:47:20;;;;;;;8.33;5.63;;;14.30;99.90;;;;;;5065170;28;20229;-54
2023/04/29 11:49:47;;;;;;;6.03;5.43;;;14.30;99.90;;;;;;5079058;28;20190;-49
2023/04/29 11:52:15;;;;;;;7.80;4.77;;;14.30;99.90;;;;;;5078251;28;20879;-51
2023/04/29 11:54:42;;;;;;;6.90;5.20;;;14.40;99.90;;;;;;5050560;28;20194;-47
2023/04/29 11:57:10;;;;;;;5.63;4.80;;;14.40;99.90;;;;;;5069686;28;20267;-52
2023/04/29 11:59:38;;;;;;;5.13;4.30;;;14.60;99.90;;;;;;5062370;28;20253;-54
2023/04/29 12:02:06;;;;;;;5.30;4.80;;;14.70;99.90;;;;;;5072133;28;20278;-54
2023/04/29 12:04:33;;;;;;;7.70;5.40;;;14.90;99.90;;;;;;5079617;28;20259;-50
2023/04/29 12:07:00;;;;;;;4.50;4.07;;;14.70;99.90;;;;;;5077146;28;20218;-53
2023/04/29 12:09:27;;;;;;;5.07;4.53;;;14.60;99.90;;;;;;5053475;28;20937;-53
2023/04/29 12:11:54;;;;;;;5.10;4.63;;;14.70;99.90;;;;;;5068429;28;20197;-53
2023/04/29 12:14:21;;;;;;;5.57;4.83;;;14.80;99.90;;;;;;5058949;28;20202;-52
2023/04/29 12:16:48;;;;;;;6.03;4.47;;;15.00;99.90;;;;;;5081064;28;20221;-50
2023/04/29 12:19:16;;;;;;;4.83;4.00;;;15.30;99.90;;;;;;5067755;28;20232;-52
2023/04/29 12:21:51;;;;;;;5.63;4.73;;;15.30;99.70;;;;;;5080503;28;20209;-50
2023/04/29 12:24:20;;;;;;;6.23;4.13;;;15.40;98.60;;;;;;5057043;28;20221;-54
2023/04/29 12:26:46;;;;;;;5.17;3.90;;;15.30;99.20;;;;;;5067162;28;20806;-51
2023/04/29 12:29:14;;;;;;;6.83;3.93;;;15.30;98.30;;;;;;5075132;28;20533;-52
2023/04/29 12:31:42;;;;;;;4.93;4.00;;;15.20;97.90;;;;;;5071584;28;20202;-50
2023/04/29 12:34:09;;;;;;;5.87;3.03;;;15.40;97.50;;;;;;5072726;28;20269;-50
2023/04/29 12:37:00;;;;;;;4.10;3.50;;;15.40;96.40;;;;;;5077478;28;20267;-49
2023/04/29 12:39:27;;;;;;;3.63;3.10;;;15.30;97.10;;;;;;5073953;28;20313;-53
2023/04/29 12:41:57;;;;;;;4.07;3.23;;;15.40;97.30;;;;;;5056503;28;20214;-50
2023/04/29 12:44:24;;;;;;;4.17;3.33;;;15.60;96.60;;;;;;5078126;28;20219;-51
2023/04/29 12:46:52;;;;;;;4.00;3.60;;;15.60;96.30;;;;;;5060303;28;20213;-50
2023/04/29 12:49:20;;;;;;;4.13;3.60;;;15.50;95.80;;;;;;5078801;28;20194;-48
2023/04/29 12:51:47;;;;;;;4.00;3.60;;;15.40;95.60;;;;;;5069770;28;20191;-53
2023/04/29 12:54:15;;;;;;;6.30;3.33;;;15.30;95.90;;;;;;5066777;28;20195;-51
2023/04/29 12:56:42;;;;;;;6.87;3.83;;;15.20;95.60;;;;;;5052059;28;20206;-51
2023/04/29 12:59:10;;;;;;;4.87;4.30;;;15.00;96.50;;;;;;5082950;28;20247;-51
2023/04/29 13:01:37;;;;;;;4.37;4.07;;;15.10;97.20;;;;;;5071436;28;20576;-51